»·PEaware :: AAL156 MMTJ-KLAS

AAL156 :: MMTJ-KLAS

FLIGHT INFORMATION

Flight Status: Arrived
Operator:
American Airlines
More flights by this operator :: More flights under this callsign
Pilot: Shaurye C. (26796)
Aircraft: AIRBUS A320
(A320)
More flights by this aircraft type
Origin: MMTJ Gen Abelardo L Rodriguez Intl
Mexico
Destination: KLAS McCarran Intl
United States
More flights between these airports :: More routes between these airports
Route: +TIJ4A TIJ TNP CLARR3
File this flight plan on PilotEdge
Remarks: RMK / SIMBRIEF
Altitude:
(Current/Filed)
35,000ft
Speed:
(Current/Filed)
432kts
Departed: 24-Dec-19 01:47 PM
Arrived: 24-Dec-19 03:07 PM
Distance/Time
Traveled:
231nm/1:20
Distance/Time
To Go:
Arrived

Flight Plot

Page will automatically refresh every two minutes.

Flight plan parsing failed; only flown route is shown


Map Options




Map Legend


Flown Route
Filed Route
Departure Airport
Arrival Airport
Navaid (VOR, NDB)
Fix

Horizontal Profiles

Position Reports

Time Latitude Longitude Heading Altitude Ground
Speed
24-Dec-19 13:19 32.545705 -116.977343 80 497ft 0kts
24-Dec-19 13:20 32.545705 -116.977343 80 497ft 0kts
24-Dec-19 13:21 32.545705 -116.977343 80 497ft 0kts
24-Dec-19 13:22 32.545705 -116.977343 80 497ft 0kts
24-Dec-19 13:23 32.545705 -116.977343 80 497ft 0kts
24-Dec-19 13:24 32.545705 -116.977343 80 497ft 0kts
24-Dec-19 13:25 32.545705 -116.977343 80 497ft 0kts
24-Dec-19 13:25 32.545705 -116.977343 80 497ft 0kts
24-Dec-19 13:27 32.545704 -116.977375 71 497ft 0kts
24-Dec-19 13:28 32.545488 -116.977599 43 497ft 2kts
24-Dec-19 13:28 32.545272 -116.977834 42 497ft 2kts
24-Dec-19 13:30 32.545063 -116.978068 88 497ft 0kts
24-Dec-19 13:31 32.545141 -116.978148 201 497ft 1kts
24-Dec-19 13:31 32.545188 -116.978132 190 497ft 0kts
24-Dec-19 13:32 32.545188 -116.978132 190 497ft 0kts
24-Dec-19 13:33 32.545188 -116.978132 190 497ft 0kts
24-Dec-19 13:34 32.545137 -116.978143 190 497ft 0kts
24-Dec-19 13:35 32.544555 -116.978146 154 497ft 9kts
24-Dec-19 13:36 32.543958 -116.975583 100 497ft 18kts
24-Dec-19 13:37 32.543938 -116.973756 263 497ft 3kts
24-Dec-19 13:38 32.543160 -116.973349 102 497ft 12kts
24-Dec-19 13:39 32.542657 -116.969512 99 497ft 26kts
24-Dec-19 13:40 32.541901 -116.963913 99 497ft 29kts
24-Dec-19 13:41 32.541186 -116.958449 98 497ft 26kts
24-Dec-19 13:42 32.540545 -116.954401 134 497ft 12kts
24-Dec-19 13:43 32.540025 -116.954328 179 497ft 0kts
24-Dec-19 13:44 32.539884 -116.954343 188 497ft 4kts
24-Dec-19 13:45 32.539177 -116.955805 279 497ft 18kts
24-Dec-19 13:46 32.541154 -116.970547 279 498ft 160kts
24-Dec-19 13:47 32.538693 -117.004958 242 2083ft 197kts
24-Dec-19 13:48 32.524649 -117.047172 258 3628ft 248kts
24-Dec-19 13:49 32.513099 -117.107088 258 5971ft 273kts
24-Dec-19 13:50 32.492719 -117.171320 222 8735ft 285kts
24-Dec-19 13:51 32.430922 -117.171671 143 10972ft 327kts
24-Dec-19 13:52 32.407534 -117.098851 79 12426ft 362kts
24-Dec-19 13:53 32.441443 -117.037176 41 13923ft 371kts
24-Dec-19 13:54 32.497725 -116.998583 18 15470ft 373kts
24-Dec-19 13:55 32.570774 -116.953380 25 17273ft 390kts
24-Dec-19 13:56 32.637891 -116.904864 26 18798ft 402kts
24-Dec-19 13:57 32.696898 -116.860803 26 20062ft 410kts
24-Dec-19 13:58 32.757868 -116.814888 26 21309ft 417kts
24-Dec-19 13:59 32.822031 -116.766398 25 22525ft 423kts
24-Dec-19 14:00 32.886039 -116.717915 25 22980ft 423kts
24-Dec-19 14:01 32.947252 -116.671484 25 23134ft 426kts
24-Dec-19 14:02 33.010435 -116.623461 26 24137ft 433kts
24-Dec-19 14:03 33.073693 -116.575298 25 25055ft 441kts
24-Dec-19 14:04 33.136020 -116.527755 25 25851ft 450kts
24-Dec-19 14:05 33.202012 -116.477334 25 26718ft 457kts
24-Dec-19 14:06 33.276493 -116.420324 25 27591ft 465kts
24-Dec-19 14:07 33.356335 -116.359073 24 28464ft 473kts
24-Dec-19 14:08 33.434070 -116.299306 25 29204ft 479kts
24-Dec-19 14:09 33.519266 -116.233650 25 30026ft 484kts
24-Dec-19 14:10 33.604721 -116.167656 25 30673ft 492kts
24-Dec-19 14:11 33.690492 -116.101232 24 31455ft 494kts
24-Dec-19 14:12 33.778502 -116.032928 24 32350ft 493kts
24-Dec-19 14:13 33.865542 -115.965199 24 33177ft 492kts
24-Dec-19 14:14 33.955745 -115.894850 23 33978ft 492kts
24-Dec-19 14:15 34.045310 -115.824804 24 34788ft 490kts
24-Dec-19 14:16 34.129718 -115.765710 9 34971ft 468kts
24-Dec-19 14:17 34.223201 -115.735836 3 34969ft 461kts
24-Dec-19 14:18 34.321688 -115.705612 3 34969ft 462kts
24-Dec-19 14:19 34.412622 -115.677587 3 34949ft 462kts
24-Dec-19 14:20 34.498126 -115.658108 352 34965ft 447kts
24-Dec-19 14:21 34.584259 -115.653060 351 34976ft 446kts
24-Dec-19 14:22 34.671611 -115.654620 347 34964ft 438kts
24-Dec-19 14:23 34.762143 -115.657252 348 33660ft 438kts
24-Dec-19 14:24 34.846378 -115.659516 348 31958ft 437kts
24-Dec-19 14:25 34.925940 -115.661493 350 30344ft 436kts
24-Dec-19 14:26 35.001008 -115.663662 351 27754ft 438kts
24-Dec-19 14:27 35.075981 -115.668956 351 24588ft 442kts
24-Dec-19 14:28 35.153414 -115.672159 354 20866ft 447kts
24-Dec-19 14:29 35.228371 -115.674518 356 17275ft 441kts
24-Dec-19 14:30 35.301537 -115.675292 356 15840ft 402kts
24-Dec-19 14:31 35.364150 -115.676019 356 15370ft 371kts
24-Dec-19 14:32 35.421558 -115.676570 356 14560ft 346kts
24-Dec-19 14:33 35.479898 -115.677417 356 13125ft 333kts
24-Dec-19 14:34 35.534129 -115.678388 356 13068ft 334kts
24-Dec-19 14:35 35.587110 -115.679135 357 13065ft 333kts
24-Dec-19 14:36 35.640482 -115.677736 357 13065ft 333kts
24-Dec-19 14:37 35.698720 -115.675148 12 13063ft 337kts
24-Dec-19 14:38 35.741963 -115.626953 67 13068ft 343kts
24-Dec-19 14:39 35.779983 -115.576685 14 13068ft 338kts
24-Dec-19 14:40 35.838036 -115.570588 359 13065ft 333kts
24-Dec-19 14:41 35.900584 -115.567375 359 13056ft 334kts
24-Dec-19 14:42 35.962117 -115.555155 31 13044ft 342kts
24-Dec-19 14:43 35.992171 -115.498599 68 12115ft 354kts
24-Dec-19 14:45 36.028591 -115.381532 76 11049ft 315kts
24-Dec-19 14:46 36.027873 -115.329526 96 11054ft 287kts
24-Dec-19 14:47 36.024084 -115.278403 96 11055ft 284kts
24-Dec-19 14:48 36.020372 -115.228264 96 11061ft 285kts
24-Dec-19 14:49 36.016739 -115.177977 95 10213ft 294kts
24-Dec-19 14:50 36.012662 -115.116955 93 8403ft 299kts
24-Dec-19 14:51 36.008923 -115.059158 96 8068ft 274kts
24-Dec-19 14:52 36.005860 -115.005498 96 8053ft 241kts
24-Dec-19 14:53 36.002854 -114.954708 97 7708ft 234kts
24-Dec-19 14:54 35.999387 -114.897435 96 7011ft 231kts
24-Dec-19 14:55 36.006588 -114.845433 45 6313ft 237kts
24-Dec-19 14:56 36.049414 -114.827479 11 5669ft 237kts
24-Dec-19 14:57 36.091226 -114.817450 12 5550ft 239kts
24-Dec-19 14:58 36.128388 -114.831117 301 5550ft 237kts
24-Dec-19 14:59 36.126173 -114.882208 242 5473ft 223kts
24-Dec-19 15:00 36.107414 -114.929911 241 5051ft 228kts
24-Dec-19 15:01 36.089128 -114.976694 242 5047ft 219kts
24-Dec-19 15:02 36.073526 -115.017253 244 5050ft 191kts
24-Dec-19 15:03 36.072353 -115.054509 274 4681ft 186kts
24-Dec-19 15:04 36.073246 -115.090951 271 3186ft 191kts
24-Dec-19 15:05 36.073565 -115.127486 270 2108ft 159kts
24-Dec-19 15:06 36.073843 -115.148185 286 2112ft 36kts
24-Dec-19 15:07 36.074731 -115.150541 300 2120ft 7kts
24-Dec-19 15:08 36.075352 -115.151328 325 2122ft 5kts
24-Dec-19 15:09 36.077179 -115.152416 335 2124ft 12kts
24-Dec-19 15:10 36.078857 -115.153377 334 2125ft 16kts
24-Dec-19 15:11 36.081684 -115.155019 332 2124ft 18kts
24-Dec-19 15:12 36.084232 -115.156486 333 2123ft 16kts
24-Dec-19 15:13 36.085845 -115.155887 29 2116ft 12kts
24-Dec-19 15:14 36.086939 -115.153751 71 2106ft 6kts

Navigation Log

Ident Type
Flight plan parsing failed, navigation log unavailable